Time;durP1;ratioP1;P1;durP2;ratioP2;P2;SDS_P1;SDS_P2;PMS_P1;PMS_P2;Temp;Humidity;BMP_temperature;BMP_pressure;BME280_temperature;BME280_humidity;BME280_pressure;Samples;Min_cycle;Max_cycle;Signal;HPM_P1;HPM_P2
2022/09/17 00:01:27;;;;;;;4.18;1.48;;;;;;;10.69;100.00;99988.72;5012461;28;20113;-83
2022/09/17 00:03:59;;;;;;;6.25;1.60;;;;;;;10.73;100.00;99995.59;5009141;28;20144;-83
2022/09/17 00:06:26;;;;;;;1.85;1.27;;;;;;;10.74;100.00;99989.47;5014530;28;20669;-83
2022/09/17 00:08:54;;;;;;;5.75;1.85;;;;;;;10.73;100.00;99995.59;5020569;28;20045;-83
2022/09/17 00:11:28;;;;;;;10.32;2.75;;;;;;;10.76;100.00;99992.91;5012562;28;20049;-82
2022/09/17 00:13:56;;;;;;;7.63;1.98;;;;;;;10.78;100.00;99992.03;5012285;28;20580;-83
2022/09/17 00:16:33;;;;;;;6.55;1.50;;;;;;;10.78;100.00;99997.25;5013717;28;20056;-83
2022/09/17 00:19:01;;;;;;;6.10;1.85;;;;;;;10.76;100.00;100000.75;4998302;28;20140;-83
2022/09/17 00:21:29;;;;;;;5.97;1.83;;;;;;;10.75;100.00;100003.41;5016922;28;20571;-84
2022/09/17 00:24:06;;;;;;;9.80;2.38;;;;;;;10.76;100.00;100008.63;4991437;28;20081;-83
2022/09/17 00:26:35;;;;;;;7.05;2.17;;;;;;;10.75;100.00;100006.03;4994544;28;20507;-83
2022/09/17 00:29:02;;;;;;;5.15;2.25;;;;;;;10.76;100.00;100008.63;4996064;28;20045;-81
2022/09/17 00:31:29;;;;;;;7.75;2.55;;;;;;;10.75;100.00;100006.03;5018155;28;20046;-84
2022/09/17 00:33:57;;;;;;;6.03;1.60;;;;;;;10.73;100.00;100000.84;5007306;28;20491;-83
2022/09/17 00:36:23;;;;;;;4.05;1.70;;;;;;;10.74;100.00;100005.19;5014732;28;20053;-83
2022/09/17 00:38:57;;;;;;;5.15;1.70;;;;;;;10.71;100.00;100010.47;5011267;28;20317;-84
2022/09/17 00:41:27;;;;;;;12.15;2.97;;;;;;;10.67;100.00;100008.81;5014359;28;20060;-83
2022/09/17 00:44:00;;;;;;;8.70;2.17;;;;;;;10.63;100.00;100014.16;5008467;28;20049;-82
2022/09/17 00:46:37;;;;;;;9.05;3.88;;;;;;;10.59;100.00;100002.88;5017473;28;20080;-83
2022/09/17 00:49:19;;;;;;;4.68;1.88;;;;;;;10.57;100.00;100004.63;4994190;28;20049;-83
2022/09/17 00:52:05;;;;;;;9.02;2.13;;;;;;;10.50;100.00;100008.28;5007056;28;20041;-82
2022/09/17 00:54:33;;;;;;;8.18;1.83;;;;;;;10.43;100.00;100010.16;5025099;28;20060;-83
2022/09/17 00:57:00;;;;;;;7.78;1.60;;;;;;;10.44;100.00;100024.94;4992723;28;20045;-82
2022/09/17 00:59:26;;;;;;;8.63;1.73;;;;;;;10.46;100.00;100017.09;5012764;28;20360;-82
2022/09/17 01:01:53;;;;;;;7.47;2.15;;;;;;;10.43;100.00;100026.72;5009619;28;20041;-82
2022/09/17 01:04:26;;;;;;;4.70;1.80;;;;;;;10.40;100.00;100025.91;5010627;28;20057;-82
2022/09/17 01:07:10;;;;;;;13.82;4.03;;;;;;;10.37;100.00;100021.59;5013836;28;20066;-82
2022/09/17 01:10:06;;;;;;;7.90;2.25;;;;;;;10.35;100.00;100018.16;5014114;28;20045;-82
2022/09/17 01:13:07;;;;;;;12.95;2.03;;;;;;;10.33;100.00;100013.81;5009198;28;20414;-82
2022/09/17 01:16:03;;;;;;;10.13;2.00;;;;;;;10.27;100.00;100019.97;5025496;28;20148;-82
2022/09/17 01:19:24;;;;;;;14.27;2.20;;;;;;;10.36;100.00;100024.22;5014816;28;20063;-82
2022/09/17 01:22:04;;;;;;;7.22;2.03;;;;;;;10.43;100.00;100029.31;5027474;28;20045;-83
2022/09/17 01:24:50;;;;;;;6.30;1.70;;;;;;;10.47;100.00;100024.91;5012400;28;20463;-83
2022/09/17 01:28:04;;;;;;;12.20;2.00;;;;;;;10.42;100.00;100019.75;5015638;28;20044;-82
2022/09/17 01:30:55;;;;;;;13.13;1.95;;;;;;;10.35;100.00;100027.69;5029449;28;20813;-83
2022/09/17 01:33:45;;;;;;;9.85;2.13;;;;;;;10.24;100.00;100026.13;4992161;28;20068;-83
2022/09/17 01:36:58;;;;;;;10.40;2.00;;;;;;;10.21;100.00;100030.56;5009083;28;20089;-82
2022/09/17 01:40:04;;;;;;;7.32;1.70;;;;;;;10.18;100.00;100030.63;5016122;28;20088;-82
2022/09/17 01:42:54;;;;;;;8.60;2.08;;;;;;;10.13;100.00;100035.94;4963869;28;20056;-83
2022/09/17 01:45:47;;;;;;;7.45;1.67;;;;;;;10.07;100.00;100034.28;5024401;28;20072;-83
2022/09/17 01:48:19;;;;;;;13.53;2.23;;;;;;;10.03;100.00;100030.00;5008725;28;20443;-83
2022/09/17 01:51:16;;;;;;;9.10;3.30;;;;;;;10.10;100.00;100026.41;5011135;28;20296;-82
2022/09/17 01:54:00;;;;;;;17.15;3.63;;;;;;;10.17;100.00;100034.09;5007137;28;20461;-83
2022/09/17 01:56:37;;;;;;;6.40;1.48;;;;;;;10.17;100.00;100047.19;5012631;28;20055;-82
2022/09/17 01:59:46;;;;;;;9.13;2.40;;;;;;;10.14;100.00;100040.25;5008024;28;20045;-82
2022/09/17 02:02:37;;;;;;;9.52;1.85;;;;;;;10.15;100.00;100047.22;5008788;28;20049;-82
2022/09/17 02:05:11;;;;;;;7.72;2.58;;;;;;;10.16;100.00;100040.25;5018774;28;20443;-82
2022/09/17 02:07:51;;;;;;;6.28;1.88;;;;;;;10.12;100.00;100046.41;5025228;28;20107;-83
2022/09/17 02:10:27;;;;;;;17.05;3.10;;;;;;;10.08;100.00;100051.69;5009051;28;20052;-82
2022/09/17 02:13:01;;;;;;;9.80;2.20;;;;;;;10.08;100.00;100050.84;5008386;28;20040;-82
2022/09/17 02:15:35;;;;;;;;;;;;;;;10.07;100.00;100056.97;5010576;28;20049;-82
2022/09/17 02:18:17;;;;;;;7.18;2.72;;;;;;;10.09;100.00;100050.81;5011185;28;19933;-83
2022/09/17 02:21:07;;;;;;;8.27;2.13;;;;;;;10.16;100.00;100046.34;5022431;28;20053;-83
2022/09/17 02:23:45;;;;;;;10.00;1.77;;;;;;;10.24;100.00;100057.53;5010907;28;20042;-82
2022/09/17 02:26:18;;;;;;;15.25;2.33;;;;;;;10.30;100.00;100056.56;5004722;28;20072;-83
2022/09/17 02:28:53;;;;;;;8.93;2.03;;;;;;;10.34;100.00;100062.59;5006813;28;20064;-82
2022/09/17 02:31:20;;;;;;;10.32;2.95;;;;;;;10.29;100.00;100054.00;5026345;28;20481;-80
2022/09/17 02:33:54;;;;;;;13.25;2.22;;;;;;;10.24;100.00;100065.38;5039669;28;20045;-82
2022/09/17 02:36:23;;;;;;;12.55;2.10;;;;;;;10.26;100.00;100057.53;5013852;28;20037;-82
2022/09/17 02:39:00;;;;;;;11.00;3.50;;;;;;;10.26;100.00;100061.00;5029639;28;20053;-83
2022/09/17 02:41:40;;;;;;;12.20;2.53;;;;;;;10.24;100.00;100067.13;5032978;28;20052;-83
2022/09/17 02:44:50;;;;;;;8.57;2.88;;;;;;;10.21;100.00;100078.50;5014821;28;20041;-82
2022/09/17 02:47:38;;;;;;;9.90;2.92;;;;;;;10.24;100.00;100073.22;5040137;28;20488;-82
2022/09/17 02:50:36;;;;;;;9.65;2.70;;;;;;;10.25;100.00;100074.09;5029427;28;20132;-82
2022/09/17 02:53:40;;;;;;;14.10;2.75;;;;;;;10.21;100.00;100077.66;5031222;28;20083;-83
2022/09/17 02:56:22;;;;;;;14.25;2.33;;;;;;;10.20;100.00;100075.94;5033223;28;20051;-82
2022/09/17 02:59:22;;;;;;;12.70;2.00;;;;;;;10.05;100.00;100083.13;5014639;28;20111;-83
2022/09/17 03:02:07;;;;;;;15.40;2.90;;;;;;;9.94;100.00;100078.06;5030896;28;20504;-82
2022/09/17 03:04:35;;;;;;;10.23;2.10;;;;;;;9.81;100.00;100071.28;5025562;28;20510;-82
2022/09/17 03:07:08;;;;;;;9.07;1.73;;;;;;;9.67;100.00;100076.72;5029555;28;20046;-82
2022/09/17 03:09:36;;;;;;;;;;;;;;;9.60;100.00;100075.09;5050584;28;20041;-83
2022/09/17 03:12:02;;;;;;;14.07;2.70;;;;;;;9.52;100.00;100075.19;5022503;28;19976;-83
2022/09/17 03:14:29;;;;;;;12.40;1.95;;;;;;;9.52;100.00;100074.34;5050836;28;20093;-82
2022/09/17 03:16:56;;;;;;;15.30;2.50;;;;;;;9.42;100.00;100073.59;5041112;28;20051;-82
2022/09/17 03:19:23;;;;;;;13.07;2.45;;;;;;;9.32;100.00;100072.88;5029777;28;20057;-82
2022/09/17 03:21:50;;;;;;;11.00;2.28;;;;;;;9.30;100.00;100085.06;5027779;28;20058;-82
2022/09/17 03:24:16;;;;;;;13.48;2.45;;;;;;;9.24;100.00;100083.41;5029085;28;20045;-82
2022/09/17 03:26:43;;;;;;;7.80;2.13;;;;;;;9.21;100.00;100090.41;5029730;28;20108;-82
2022/09/17 03:29:10;;;;;;;11.95;1.83;;;;;;;9.15;100.00;100088.75;5043719;28;20097;-83
2022/09/17 03:31:36;;;;;;;13.20;2.13;;;;;;;9.14;100.00;100089.63;5053584;28;20060;-83
2022/09/17 03:34:03;;;;;;;11.82;2.25;;;;;;;9.12;100.00;100090.53;5027404;28;20045;-83
2022/09/17 03:36:29;;;;;;;9.20;2.05;;;;;;;9.11;100.00;100087.03;5028887;28;20041;-83
2022/09/17 03:38:58;;;;;;;9.63;1.85;;;;;;;9.03;100.00;100092.34;5032919;28;20500;-83
2022/09/17 03:41:25;;;;;;;13.38;2.28;;;;;;;9.01;100.00;100090.63;5010574;28;20061;-82
2022/09/17 03:43:52;;;;;;;9.07;2.47;;;;;;;9.04;100.00;100093.25;5021568;28;20068;-83
2022/09/17 03:46:19;;;;;;;12.45;3.80;;;;;;;9.03;100.00;100088.88;5023190;28;20184;-83
2022/09/17 03:48:46;;;;;;;9.90;1.80;;;;;;;9.00;100.00;100092.41;5024305;28;20046;-83
2022/09/17 03:51:13;;;;;;;16.33;2.63;;;;;;;9.04;100.00;100098.47;5024187;28;20041;-83
2022/09/17 03:53:39;;;;;;;14.90;2.38;;;;;;;8.97;100.00;100095.06;5003538;28;20046;-82
2022/09/17 03:56:07;;;;;;;15.32;1.98;;;;;;;9.02;100.00;100092.38;5022790;28;20129;-83
2022/09/17 03:58:34;;;;;;;13.18;2.03;;;;;;;8.92;100.00;100095.09;5024801;28;20148;-83
2022/09/17 04:01:02;;;;;;;11.75;2.47;;;;;;;8.85;100.00;100109.13;5027425;28;20060;-83
2022/09/17 04:03:30;;;;;;;20.23;3.28;;;;;;;8.83;100.00;100103.03;5025132;28;20499;-83
2022/09/17 04:05:57;;;;;;;9.77;2.05;;;;;;;8.81;100.00;100107.38;5029998;28;20853;-83
2022/09/17 04:08:24;;;;;;;13.60;2.20;;;;;;;8.74;100.00;100113.56;5015100;28;20050;-82
2022/09/17 04:10:51;;;;;;;10.77;3.35;;;;;;;8.77;100.00;100105.69;5026003;28;20708;-82
2022/09/17 04:13:19;;;;;;;7.35;2.00;;;;;;;8.76;100.00;100114.41;5027903;28;20392;-84
2022/09/17 04:15:47;;;;;;;11.65;1.92;;;;;;;8.77;100.00;100119.63;5027146;28;20034;-82
2022/09/17 04:18:14;;;;;;;12.13;2.00;;;;;;;8.86;100.00;100113.44;5027338;28;20064;-82
2022/09/17 04:20:41;;;;;;;11.00;1.83;;;;;;;9.01;100.00;100122.84;5013303;28;20504;-82
2022/09/17 04:23:11;;;;;;;19.25;2.97;;;;;;;9.12;100.00;100127.09;5023605;28;20502;-82
2022/09/17 04:25:40;;;;;;;8.18;2.38;;;;;;;9.20;100.00;100133.09;5021046;28;20069;-82
2022/09/17 04:28:07;;;;;;;16.95;2.55;;;;;;;9.23;100.00;100127.81;5033116;28;20041;-83
2022/09/17 04:30:33;;;;;;;9.30;1.80;;;;;;;9.25;100.00;100128.66;5017348;28;20065;-82
2022/09/17 04:33:00;;;;;;;9.95;1.40;;;;;;;9.24;100.00;100132.16;5048832;28;20056;-82
2022/09/17 04:35:27;;;;;;;7.72;2.35;;;;;;;9.25;100.00;100126.91;5027254;28;20071;-82
2022/09/17 04:37:58;;;;;;;10.80;2.35;;;;;;;9.31;100.00;100133.84;5043564;28;20041;-82
2022/09/17 04:40:26;;;;;;;10.70;3.03;;;;;;;9.38;100.00;100132.00;5031333;28;20051;-83
2022/09/17 04:43:01;;;;;;;10.85;2.40;;;;;;;9.42;100.00;100129.31;5034326;28;20057;-83
2022/09/17 04:45:32;;;;;;;11.95;2.88;;;;;;;9.48;100.00;100130.13;5039889;28;20492;-82
2022/09/17 04:47:58;;;;;;;9.57;2.00;;;;;;;9.46;100.00;100130.16;5046030;28;20140;-83
2022/09/17 04:50:25;;;;;;;7.97;2.03;;;;;;;9.56;100.00;100129.16;5028954;28;20846;-82
2022/09/17 04:52:51;;;;;;;8.60;2.05;;;;;;;9.64;100.00;100130.81;5011151;28;20046;-82
2022/09/17 04:55:18;;;;;;;11.80;2.70;;;;;;;9.76;100.00;100128.00;5029560;28;20053;-83
2022/09/17 04:57:50;;;;;;;7.88;2.45;;;;;;;9.84;100.00;100135.75;5028702;28;20045;-82
2022/09/17 05:00:22;;;;;;;14.50;2.67;;;;;;;9.86;100.00;100127.00;5014194;28;20099;-83
2022/09/17 05:02:52;;;;;;;12.23;3.45;;;;;;;9.82;100.00;100133.16;5013303;28;20060;-83
2022/09/17 05:05:19;;;;;;;10.25;2.53;;;;;;;9.83;100.00;100132.28;5009215;28;20061;-82
2022/09/17 05:07:47;;;;;;;9.73;1.77;;;;;;;9.88;100.00;100143.53;5042200;28;20420;-82
2022/09/17 05:10:18;;;;;;;10.15;2.22;;;;;;;9.91;100.00;100138.25;5010149;28;20511;-82
2022/09/17 05:12:50;;;;;;;8.45;2.63;;;;;;;9.92;100.00;100146.94;5028798;28;20053;-82
2022/09/17 05:15:17;;;;;;;15.32;2.42;;;;;;;9.97;100.00;100144.28;5034014;28;20155;-83
2022/09/17 05:17:44;;;;;;;10.18;2.17;;;;;;;10.02;100.00;100150.31;5042712;28;20132;-83
2022/09/17 05:20:11;;;;;;;12.10;2.65;;;;;;;10.11;100.00;100147.56;5011624;28;20049;-83
2022/09/17 05:22:52;;;;;;;22.95;3.20;;;;;;;10.18;100.00;100149.19;5021762;28;20136;-83
2022/09/17 05:25:22;;;;;;;8.45;2.22;;;;;;;10.26;100.00;100146.47;5026469;28;20049;-83
2022/09/17 05:27:49;;;;;;;8.63;2.95;;;;;;;10.19;100.00;100150.91;5024352;28;20045;-83
2022/09/17 05:30:16;;;;;;;11.02;2.28;;;;;;;10.24;100.00;100154.31;5031970;28;20041;-83
2022/09/17 05:32:43;;;;;;;10.38;2.38;;;;;;;10.17;100.00;100157.03;5026372;28;20121;-83
2022/09/17 05:35:11;;;;;;;16.15;2.25;;;;;;;10.07;100.00;100161.56;5026771;28;20448;-83
2022/09/17 05:37:38;;;;;;;11.40;2.45;;;;;;;10.05;100.00;100164.22;5008887;28;20771;-83
2022/09/17 05:40:06;;;;;;;10.95;2.30;;;;;;;10.01;100.00;100159.03;5038510;28;20113;-83
2022/09/17 05:42:34;;;;;;;13.98;2.40;;;;;;;10.07;100.00;100164.19;5017010;28;20050;-83
2022/09/17 05:45:00;;;;;;;22.98;2.67;;;;;;;10.03;100.00;100165.13;5048810;28;20057;-83
2022/09/17 05:47:27;;;;;;;9.63;2.17;;;;;;;9.92;100.00;100167.84;5045758;28;20054;-84
2022/09/17 05:49:54;;;;;;;8.90;1.45;;;;;;;9.85;100.00;100166.25;5009488;28;20076;-84
2022/09/17 05:52:21;;;;;;;8.05;2.45;;;;;;;9.76;100.00;100175.94;5023593;28;20076;-84
2022/09/17 05:54:48;;;;;;;9.32;1.80;;;;;;;9.71;100.00;100172.53;5008101;28;20049;-86
2022/09/17 05:57:15;;;;;;;13.73;2.72;;;;;;;9.65;100.00;100175.22;5026079;28;20450;-82
2022/09/17 05:59:42;;;;;;;12.32;2.20;;;;;;;9.69;100.00;100170.81;5010665;28;20042;-83
2022/09/17 06:02:16;;;;;;;10.07;2.03;;;;;;;9.69;100.00;100174.28;5021728;28;20519;-83
2022/09/17 06:04:42;;;;;;;17.88;2.03;;;;;;;9.66;100.00;100170.84;5023406;28;20041;-83
2022/09/17 06:07:11;;;;;;;14.80;2.83;;;;;;;9.63;100.00;100176.97;4992069;28;20072;-83
2022/09/17 06:09:39;;;;;;;15.48;2.20;;;;;;;9.60;100.00;100190.06;5032329;28;20080;-82
2022/09/17 06:12:06;;;;;;;16.83;2.63;;;;;;;9.60;100.00;100188.31;5022877;28;20045;-83
2022/09/17 06:14:33;;;;;;;12.07;2.20;;;;;;;9.58;100.00;100197.94;5026897;28;20045;-85
2022/09/17 06:17:01;;;;;;;9.32;2.03;;;;;;;9.64;100.00;100196.13;4994898;28;20138;-83
2022/09/17 06:19:28;;;;;;;16.90;3.00;;;;;;;9.80;100.00;100187.19;5007278;28;20096;-82
2022/09/17 06:21:56;;;;;;;17.45;3.00;;;;;;;9.95;100.00;100191.38;5022634;28;20041;-83
2022/09/17 06:24:23;;;;;;;10.40;1.83;;;;;;;9.98;100.00;100199.16;5024572;28;20041;-83
2022/09/17 06:26:52;;;;;;;12.82;2.45;;;;;;;9.83;100.00;100201.97;5012112;28;20485;-84
2022/09/17 06:29:20;;;;;;;11.23;2.17;;;;;;;9.74;100.00;100198.59;5039823;28;20049;-83
2022/09/17 06:31:49;;;;;;;11.35;2.92;;;;;;;9.70;100.00;100201.25;5009205;28;20054;-84
2022/09/17 06:34:18;;;;;;;12.10;2.90;;;;;;;9.59;100.00;100204.91;5021569;28;20073;-83
2022/09/17 06:36:45;;;;;;;11.23;1.90;;;;;;;9.88;100.00;100201.06;5007371;28;20046;-84
2022/09/17 06:39:12;;;;;;;15.15;2.40;;;;;;;10.15;100.00;100206.75;4993788;28;20049;-84
2022/09/17 06:41:42;;;;;;;13.50;2.72;;;;;;;10.46;100.00;100206.34;5023433;28;20203;-84
2022/09/17 06:44:09;;;;;;;10.27;1.95;;;;;;;10.72;97.66;100210.31;5022322;28;20049;-83
2022/09/17 06:46:36;;;;;;;11.27;2.33;;;;;;;10.92;95.62;100209.94;5044076;28;20042;-83
2022/09/17 06:49:02;;;;;;;9.48;2.00;;;;;;;11.20;94.71;100210.31;5025396;28;20049;-84
2022/09/17 06:51:30;;;;;;;10.30;2.70;;;;;;;11.58;90.43;100208.69;5022817;28;20061;-84
2022/09/17 06:53:56;;;;;;;11.10;2.15;;;;;;;12.02;88.75;100213.06;5023678;28;20049;-84
2022/09/17 06:56:23;;;;;;;18.75;1.70;;;;;;;12.33;85.41;100207.13;5025488;28;20047;-83
2022/09/17 06:58:49;;;;;;;10.45;2.28;;;;;;;12.11;85.36;100202.41;5009244;28;20053;-84
2022/09/17 07:01:16;;;;;;;12.63;2.83;;;;;;;11.93;86.47;100206.25;5025316;28;20064;-84
2022/09/17 07:03:43;;;;;;;9.52;2.33;;;;;;;11.59;87.64;100206.97;5029355;28;20037;-84
2022/09/17 07:06:11;;;;;;;8.43;2.38;;;;;;;11.13;89.00;100210.47;5028523;28;20155;-85
2022/09/17 07:08:38;;;;;;;12.38;3.13;;;;;;;10.81;92.78;100220.63;5029540;28;20053;-84
2022/09/17 07:11:06;;;;;;;13.00;2.80;;;;;;;10.84;94.45;100217.09;5025350;28;20536;-83
2022/09/17 07:13:33;;;;;;;13.32;2.67;;;;;;;11.11;90.13;100220.09;5009436;28;20037;-84
2022/09/17 07:16:02;;;;;;;12.30;1.95;;;;;;;11.41;89.17;100213.44;5029468;28;20140;-84
2022/09/17 07:18:29;;;;;;;9.82;1.95;;;;;;;11.88;86.04;100213.34;5011891;28;20051;-84
2022/09/17 07:20:58;;;;;;;12.32;3.47;;;;;;;12.51;82.17;100204.06;5023985;28;20057;-82
2022/09/17 07:23:31;;;;;;;12.48;2.13;;;;;;;12.95;79.54;100203.00;5022521;28;20033;-83
2022/09/17 07:26:01;;;;;;;12.03;1.73;;;;;;;13.57;76.83;100202.19;5008208;28;20045;-83
2022/09/17 07:28:29;;;;;;;16.33;1.98;;;;;;;13.99;72.05;100196.59;5028030;28;20303;-83
2022/09/17 07:30:57;;;;;;;10.75;2.13;;;;;;;14.24;70.68;100203.72;5024781;28;20111;-83
2022/09/17 07:33:28;;;;;;;7.25;1.60;;;;;;;14.53;69.53;100202.78;5027280;28;20129;-84
2022/09/17 07:36:05;;;;;;;5.57;1.80;;;;;;;14.59;67.78;100198.22;5015404;28;20080;-83
2022/09/17 07:38:32;;;;;;;11.00;1.80;;;;;;;14.70;66.80;100199.63;5028262;28;20424;-84
2022/09/17 07:41:01;;;;;;;11.65;1.60;;;;;;;14.79;66.29;100194.97;5026694;28;20041;-84
2022/09/17 07:43:31;;;;;;;6.75;2.08;;;;;;;14.78;65.25;100198.53;5010994;28;20128;-84
2022/09/17 07:46:01;;;;;;;7.43;1.60;;;;;;;14.93;64.91;100199.75;5010128;28;20535;-85
2022/09/17 07:48:29;;;;;;;10.70;2.40;;;;;;;15.13;64.32;100204.34;5023476;28;20061;-84
2022/09/17 07:50:56;;;;;;;8.30;1.88;;;;;;;15.36;62.86;100198.28;5050833;28;20667;-85
2022/09/17 07:53:23;;;;;;;4.82;1.80;;;;;;;15.71;62.66;100190.84;5068642;28;20319;-85
2022/09/17 07:56:02;;;;;;;13.00;2.25;;;;;;;15.77;60.85;100201.13;5018532;28;20518;-85
2022/09/17 07:58:35;;;;;;;11.82;2.15;;;;;;;15.80;61.21;100200.16;5013989;28;20042;-85
2022/09/17 08:01:15;;;;;;;8.25;2.28;;;;;;;15.85;60.01;100200.88;5031020;28;20053;-85
2022/09/17 08:03:43;;;;;;;9.77;2.08;;;;;;;16.14;60.28;100196.25;5011678;28;20041;-84
2022/09/17 08:06:14;;;;;;;5.13;1.63;;;;;;;16.24;59.04;100205.53;5030639;28;20513;-84
2022/09/17 08:08:42;;;;;;;6.90;2.00;;;;;;;15.80;59.26;100194.88;5027927;28;20058;-85
2022/09/17 08:11:19;;;;;;;8.73;1.52;;;;;;;15.01;62.35;100203.00;5029749;28;20136;-83
2022/09/17 08:13:55;;;;;;;7.15;2.03;;;;;;;15.22;61.81;100207.50;4998464;28;20052;-85
2022/09/17 08:16:26;;;;;;;11.02;1.42;;;;;;;15.73;58.94;100194.25;5031915;28;20049;-84
2022/09/17 08:18:57;;;;;;;8.57;1.83;;;;;;;15.96;58.74;100198.69;5011647;28;20056;-85
2022/09/17 08:21:26;;;;;;;7.65;1.85;;;;;;;16.51;57.25;100202.72;5027949;28;20408;-85
2022/09/17 08:23:53;;;;;;;8.93;1.73;;;;;;;17.15;55.09;100188.56;5024550;28;20784;-83
2022/09/17 08:26:22;;;;;;;12.45;2.92;;;;;;;17.77;54.58;100191.09;5015359;28;20049;-85
2022/09/17 08:28:55;;;;;;;4.45;1.60;;;;;;;18.06;51.35;100180.13;5020213;28;20519;-84
2022/09/17 08:31:28;;;;;;;8.52;1.70;;;;;;;18.19;50.72;100186.53;5033148;28;20113;-85
2022/09/17 08:33:59;;;;;;;12.00;2.73;;;;;;;18.19;51.26;100191.84;5013305;28;20057;-84
2022/09/17 08:36:30;;;;;;;4.30;1.92;;;;;;;18.15;51.11;100185.81;5012768;28;20528;-86
2022/09/17 08:39:04;;;;;;;11.32;2.30;;;;;;;18.73;50.07;100188.31;5027707;28;20069;-86
2022/09/17 08:41:40;;;;;;;7.07;1.52;;;;;;;18.44;48.99;100180.03;5022846;28;20045;-85
2022/09/17 08:44:38;;;;;;;5.28;1.02;;;;;;;18.22;48.99;100178.44;5024658;28;20051;-85
2022/09/17 08:47:17;;;;;;;9.40;2.13;;;;;;;18.51;49.40;100184.09;5023751;28;20784;-85
2022/09/17 08:49:54;;;;;;;;;;;;;;;19.08;47.08;100180.41;5026971;28;20053;-86
2022/09/17 08:53:13;;;;;;;6.55;1.98;;;;;;;19.12;46.65;100177.47;5011498;28;19967;-86
2022/09/17 08:55:45;;;;;;;7.38;1.48;;;;;;;19.53;45.87;100184.22;5028033;28;20901;-85
2022/09/17 08:59:10;;;;;;;8.30;1.83;;;;;;;19.57;45.02;100180.44;5024881;28;20539;-85
2022/09/17 09:02:02;;;;;;;5.50;1.63;;;;;;;18.70;47.04;100172.59;4990951;28;20715;-85
2022/09/17 09:05:01;;;;;;;7.13;2.03;;;;;;;17.86;49.27;100193.31;4993021;28;20089;-84
2022/09/17 09:07:41;;;;;;;7.78;1.92;;;;;;;17.36;50.39;100189.44;5027498;28;20045;-84
2022/09/17 09:10:36;;;;;;;7.25;1.80;;;;;;;16.58;52.55;100190.94;5029233;28;20107;-87
2022/09/17 09:13:05;;;;;;;4.40;1.48;;;;;;;16.66;53.07;100190.63;5023422;28;20129;-85
2022/09/17 09:15:39;;;;;;;8.80;2.03;;;;;;;17.52;49.79;100172.84;5029105;28;20076;-86
2022/09/17 09:18:31;;;;;;;6.97;1.98;;;;;;;18.45;47.36;100187.06;5043286;28;20045;-84
2022/09/17 09:21:26;;;;;;;6.20;1.88;;;;;;;17.66;48.86;100183.69;5007365;28;20072;-87
2022/09/17 09:24:14;;;;;;;4.80;1.05;;;;;;;16.83;50.44;100177.59;4995014;28;20041;-85
2022/09/17 09:27:05;;;;;;;10.32;2.25;;;;;;;16.17;52.52;100180.31;5033137;28;20041;-84
2022/09/17 09:30:00;;;;;;;6.18;1.45;;;;;;;16.02;53.56;100177.34;5034683;28;20313;-84
2022/09/17 09:32:58;;;;;;;4.40;1.80;;;;;;;17.49;50.44;100175.63;5035475;28;20562;-84
2022/09/17 09:35:37;;;;;;;7.90;2.47;;;;;;;19.09;46.76;100172.34;5029651;28;20643;-85
2022/09/17 09:38:34;;;;;;;8.60;1.88;;;;;;;18.52;45.69;100176.09;5034967;22;20053;-86
2022/09/17 09:41:13;;;;;;;11.77;3.50;;;;;;;19.65;44.79;100178.22;5075104;22;20119;-84
2022/09/17 09:44:01;;;;;;;6.18;2.08;;;;;;;19.23;43.60;100170.75;5028578;28;20051;-84
2022/09/17 09:46:56;;;;;;;6.55;2.45;;;;;;;19.16;45.30;100162.28;5027845;28;20155;-84
2022/09/17 09:49:45;;;;;;;6.97;1.67;;;;;;;18.78;44.97;100165.09;5036563;28;20049;-85
2022/09/17 09:52:31;;;;;;;7.10;1.90;;;;;;;18.01;47.18;100170.56;5077386;22;20051;-86
2022/09/17 09:55:26;;;;;;;6.90;1.58;;;;;;;17.51;48.18;100163.19;5055338;28;20052;-87
2022/09/17 09:58:05;;;;;;;4.68;1.77;;;;;;;18.34;46.46;100166.38;5082076;22;20137;-85
2022/09/17 10:00:42;;;;;;;6.05;1.90;;;;;;;19.37;44.49;100164.72;5018891;28;20708;-86
2022/09/17 10:03:33;;;;;;;6.00;2.00;;;;;;;19.07;44.38;100163.59;5044205;28;20052;-85
2022/09/17 10:06:06;;;;;;;4.32;1.50;;;;;;;18.01;46.51;100162.63;5040488;28;20080;-87
2022/09/17 10:08:36;;;;;;;7.47;1.50;;;;;;;17.40;45.11;100163.66;5020000;28;20091;-87
2022/09/17 10:11:22;;;;;;;7.40;1.40;;;;;;;18.67;42.08;100153.22;5023184;28;20047;-86
2022/09/17 10:13:50;;;;;;;4.35;1.35;;;;;;;19.59;40.24;100165.28;5035284;28;20054;-86
2022/09/17 10:16:29;;;;;;;6.82;1.70;;;;;;;20.13;39.54;100166.81;5032904;28;20111;-86
2022/09/17 10:19:06;;;;;;;5.65;1.13;;;;;;;18.95;40.70;100164.25;5032646;28;20053;-87
2022/09/17 10:21:42;;;;;;;6.03;1.35;;;;;;;19.96;39.94;100163.28;5033725;28;20064;-85
2022/09/17 10:24:30;;;;;;;5.20;2.15;;;;;;;21.18;37.60;100149.16;5007814;28;20164;-86
2022/09/17 10:27:13;;;;;;;8.23;1.88;;;;;;;21.52;37.46;100149.72;5008745;28;21000;-87
2022/09/17 10:29:48;;;;;;;11.20;2.08;;;;;;;21.00;37.36;100151.97;5008895;28;20053;-88
2022/09/17 10:32:26;;;;;;;10.80;1.67;;;;;;;20.26;38.34;100158.97;5011251;28;20056;-87
2022/09/17 10:40:59;;;;;;;4.55;1.92;;;;;;;22.64;34.33;100154.97;5011454;28;20037;-87
2022/09/17 10:43:28;;;;;;;2.88;1.05;;;;;;;22.66;32.99;100142.38;5013095;28;20764;-85
2022/09/17 10:46:01;;;;;;;4.85;1.55;;;;;;;21.71;34.25;100155.63;5013129;28;20145;-87
2022/09/17 10:49:02;;;;;;;4.90;1.55;;;;;;;20.82;35.56;100157.47;5012314;28;20269;-85
2022/09/17 10:51:31;;;;;;;9.45;1.90;;;;;;;19.39;37.68;100155.75;5008818;28;20037;-86
2022/09/17 10:54:39;;;;;;;5.60;1.50;;;;;;;19.18;37.35;100157.75;5024539;28;20052;-86
2022/09/17 10:57:09;;;;;;;4.95;1.50;;;;;;;19.23;37.25;100165.44;5010222;28;20050;-88
2022/09/17 11:00:13;;;;;;;5.57;1.25;;;;;;;19.30;37.86;100159.75;5020446;28;20057;-86
2022/09/17 11:03:18;;;;;;;9.18;1.75;;;;;;;19.69;37.50;100152.34;5058197;28;20037;-87
2022/09/17 11:05:56;;;;;;;3.45;1.20;;;;;;;18.73;39.67;100148.56;5037966;28;20049;-87
2022/09/17 11:08:50;;;;;;;7.63;1.75;;;;;;;17.40;43.08;100153.09;5043116;28;20148;-87
2022/09/17 11:11:54;;;;;;;5.53;1.67;;;;;;;16.38;44.58;100144.22;5042064;28;20243;-86
2022/09/17 11:14:47;;;;;;;7.38;1.30;;;;;;;15.95;46.21;100154.72;5046042;28;20052;-86
2022/09/17 11:17:55;;;;;;;5.63;1.00;;;;;;;16.02;46.15;100153.59;5056626;28;20072;-86
2022/09/17 11:20:59;;;;;;;3.75;1.30;;;;;;;16.16;45.33;100155.66;5039341;28;20483;-86
2022/09/17 11:24:10;;;;;;;4.57;1.65;;;;;;;16.73;44.34;100139.25;5050574;28;20034;-86
2022/09/17 11:27:07;;;;;;;10.57;1.60;;;;;;;16.62;44.52;100150.28;5042501;28;20076;-86
2022/09/17 11:30:15;;;;;;;5.68;1.52;;;;;;;16.23;45.62;100158.06;5058843;28;20106;-86
2022/09/17 11:33:17;;;;;;;4.05;1.20;;;;;;;15.87;45.77;100159.47;5024141;28;20152;-86
2022/09/17 11:35:59;;;;;;;3.72;1.45;;;;;;;15.86;45.01;100160.38;5065571;28;20094;-85
2022/09/17 11:38:50;;;;;;;8.68;1.50;;;;;;;15.84;45.08;100163.09;5042634;28;20075;-87
2022/09/17 11:41:23;;;;;;;11.07;1.83;;;;;;;15.78;46.55;100158.00;5031158;28;20148;-86
2022/09/17 11:44:28;;;;;;;5.97;1.75;;;;;;;15.75;45.77;100151.97;5023982;28;20053;-86
2022/09/17 11:47:10;;;;;;;5.78;1.08;;;;;;;15.54;46.26;100154.53;5046061;28;20041;-85
2022/09/17 11:50:00;;;;;;;10.50;1.58;;;;;;;15.19;47.77;100154.91;5041102;28;20045;-86
2022/09/17 11:52:39;;;;;;;6.28;1.27;;;;;;;15.13;48.92;100160.38;5046127;28;20061;-85
2022/09/17 11:55:24;;;;;;;5.40;1.65;;;;;;;15.15;49.24;100149.81;5063014;28;20112;-86
2022/09/17 11:58:12;;;;;;;4.28;1.52;;;;;;;15.27;49.81;100156.41;5058763;28;20061;-87
2022/09/17 12:00:53;;;;;;;10.63;1.77;;;;;;;15.47;48.78;100150.38;5043772;28;20122;-85
2022/09/17 12:03:30;;;;;;;7.90;1.35;;;;;;;15.88;47.73;100158.56;5031825;28;20049;-85
2022/09/17 12:06:43;;;;;;;10.23;1.33;;;;;;;16.09;46.67;100155.97;5024108;28;20055;-86
2022/09/17 12:09:26;;;;;;;3.97;0.82;;;;;;;16.51;46.20;100145.44;5042929;28;20036;-86